createdAt,value
2019-01-19T00:02:37.041Z,17.77
2019-01-19T00:05:30.932Z,18.03
2019-01-19T00:08:11.030Z,19.13
2019-01-19T00:11:24.226Z,19.47
2019-01-19T00:14:10.931Z,18.20
2019-01-19T00:17:22.643Z,20.43
2019-01-19T00:20:36.494Z,18.70
2019-01-19T00:23:52.886Z,20.73
2019-01-19T00:27:10.277Z,21.57
2019-01-19T00:30:30.950Z,21.33
2019-01-19T00:33:26.042Z,20.87
2019-01-19T00:36:35.558Z,22.13
2019-01-19T00:39:47.113Z,22.37
2019-01-19T00:42:35.033Z,21.67
2019-01-19T00:45:45.097Z,21.30
2019-01-19T00:48:45.287Z,20.63
2019-01-19T00:52:02.169Z,20.67
2019-01-19T00:55:04.551Z,22.20
2019-01-19T00:58:22.067Z,20.00
2019-01-19T01:01:24.090Z,20.10
2019-01-19T01:04:25.472Z,19.77
2019-01-19T01:07:29.804Z,19.73
2019-01-19T01:10:23.117Z,20.40
2019-01-19T01:13:47.691Z,20.23
2019-01-19T01:16:56.250Z,19.70
2019-01-19T01:20:04.673Z,19.53
2019-01-19T01:23:27.820Z,20.63
2019-01-19T01:27:03.282Z,20.70
2019-01-19T01:30:11.990Z,20.57
2019-01-19T01:33:35.659Z,20.83
2019-01-19T01:36:37.772Z,20.50
2019-01-19T01:39:33.493Z,19.73
2019-01-19T01:42:41.272Z,20.57
2019-01-19T01:45:35.957Z,20.87
2019-01-19T01:48:35.994Z,20.67
2019-01-19T01:51:13.098Z,20.13
2019-01-19T01:54:06.491Z,19.60
2019-01-19T01:56:36.762Z,20.97
2019-01-19T01:59:39.091Z,19.50
2019-01-19T02:02:40.559Z,19.47
2019-01-19T02:05:40.192Z,18.73
2019-01-19T02:08:33.786Z,19.17
2019-01-19T02:11:20.640Z,18.30
2019-01-19T02:14:06.842Z,18.50
2019-01-19T02:17:13.035Z,17.63
2019-01-19T02:20:14.995Z,17.00
2019-01-19T02:23:20.837Z,16.90
2019-01-19T02:26:33.521Z,17.10
2019-01-19T02:29:28.318Z,15.77
2019-01-19T02:32:35.338Z,15.57
2019-01-19T02:35:31.051Z,14.43
2019-01-19T02:38:48.299Z,15.93
2019-01-19T02:41:58.493Z,15.67
2019-01-19T02:45:08.108Z,14.87
2019-01-19T02:48:06.492Z,15.03
2019-01-19T02:50:48.426Z,15.03
2019-01-19T02:53:46.667Z,15.67
2019-01-19T02:56:53.916Z,13.80
2019-01-19T02:59:41.661Z,15.90
2019-01-19T03:02:46.926Z,15.13
2019-01-19T03:05:56.270Z,15.27
2019-01-19T03:08:58.010Z,14.00
2019-01-19T03:11:53.129Z,16.47
2019-01-19T03:14:41.410Z,15.90
2019-01-19T03:17:53.002Z,15.60
2019-01-19T03:21:03.105Z,16.00
2019-01-19T03:23:45.331Z,16.00
2019-01-19T03:26:50.024Z,16.03
2019-01-19T03:29:51.394Z,15.30
2019-01-19T03:33:14.728Z,15.83
2019-01-19T03:36:21.922Z,16.47
2019-01-19T03:39:42.198Z,17.13
2019-01-19T03:42:49.760Z,16.20
2019-01-19T03:45:53.216Z,16.80
2019-01-19T03:48:58.477Z,17.30
2019-01-19T03:51:37.442Z,18.13
2019-01-19T03:54:59.844Z,16.90
2019-01-19T03:57:53.060Z,18.47
2019-01-19T04:01:28.904Z,18.03
2019-01-19T04:04:13.720Z,18.50
2019-01-19T04:07:17.944Z,18.67
2019-01-19T04:10:25.094Z,17.00
2019-01-19T04:13:19.249Z,17.67
2019-01-19T04:16:24.940Z,16.70
2019-01-19T04:19:36.104Z,17.27
2019-01-19T04:22:33.088Z,17.83
2019-01-19T04:25:48.639Z,17.10
2019-01-19T04:28:20.422Z,17.97
2019-01-19T04:30:50.743Z,18.90
2019-01-19T04:33:20.921Z,19.47
2019-01-19T04:35:51.163Z,18.30
2019-01-19T04:38:21.375Z,18.87
2019-01-19T04:40:51.819Z,18.50
2019-01-19T04:43:22.029Z,19.33
2019-01-19T04:45:52.249Z,18.87
2019-01-19T04:48:22.998Z,19.90
2019-01-19T04:50:53.293Z,21.13
2019-01-19T04:53:23.503Z,20.30
2019-01-19T04:55:53.846Z,21.07
2019-01-19T04:58:24.111Z,20.47
2019-01-19T05:00:54.289Z,20.93
2019-01-19T05:03:24.517Z,20.70
2019-01-19T05:05:54.750Z,21.83
2019-01-19T05:08:25.095Z,20.03
2019-01-19T05:10:55.478Z,19.77
2019-01-19T05:13:26.024Z,20.57
2019-01-19T05:15:56.283Z,21.13
2019-01-19T05:18:26.866Z,19.60
2019-01-19T05:20:57.232Z,21.13
2019-01-19T05:23:27.978Z,19.63
2019-01-19T05:25:58.182Z,19.37
2019-01-19T05:28:28.800Z,20.17
2019-01-19T05:30:59.301Z,20.30
2019-01-19T05:33:30.037Z,21.97
2019-01-19T05:36:00.295Z,20.73
2019-01-19T05:38:30.778Z,21.47
2019-01-19T05:41:00.979Z,21.47
2019-01-19T05:43:31.437Z,22.20
2019-01-19T05:46:01.637Z,20.40
2019-01-19T05:48:32.143Z,19.83
2019-01-19T05:51:02.353Z,20.03
2019-01-19T05:53:32.680Z,18.63
2019-01-19T05:56:02.866Z,19.23
2019-01-19T05:58:33.137Z,18.70
2019-01-19T06:01:03.396Z,20.17
2019-01-19T06:03:33.619Z,18.70
2019-01-19T06:06:04.354Z,17.93
2019-01-19T06:08:34.567Z,19.10
2019-01-19T06:11:04.806Z,17.80
2019-01-19T06:13:34.995Z,20.33
2019-01-19T06:16:05.307Z,18.30
2019-01-19T06:18:36.502Z,19.07
2019-01-19T06:21:08.514Z,18.90
2019-01-19T06:23:38.736Z,18.40
2019-01-19T06:26:08.997Z,15.87
2019-01-19T06:28:39.219Z,14.83
2019-01-19T06:31:09.466Z,15.13
2019-01-19T06:33:39.696Z,15.97
2019-01-19T06:36:09.909Z,14.37
2019-01-19T06:38:40.106Z,14.23
2019-01-19T06:41:10.348Z,14.70
2019-01-19T06:43:40.574Z,14.73
2019-01-19T06:46:10.818Z,14.47
2019-01-19T06:48:41.049Z,14.77
2019-01-19T06:51:11.367Z,14.67
2019-01-19T06:53:41.594Z,16.57
2019-01-19T06:56:11.860Z,15.30
2019-01-19T06:58:53.910Z,14.83
2019-01-19T07:01:24.148Z,15.93
2019-01-19T07:03:54.410Z,15.70
2019-01-19T07:06:24.682Z,14.63
2019-01-19T07:08:54.938Z,15.47
2019-01-19T07:11:25.146Z,14.00
2019-01-19T07:13:55.399Z,15.33
2019-01-19T07:16:25.643Z,15.43
2019-01-19T07:18:56.146Z,16.43
2019-01-19T07:21:26.341Z,16.37
2019-01-19T07:23:56.568Z,16.67
2019-01-19T07:26:26.841Z,16.63
2019-01-19T07:28:57.148Z,16.50
2019-01-19T07:31:28.220Z,17.37
2019-01-19T07:33:58.598Z,16.53
2019-01-19T07:36:28.812Z,17.17
2019-01-19T07:39:02.567Z,17.57
2019-01-19T07:41:34.050Z,17.50
2019-01-19T07:44:04.703Z,18.27
2019-01-19T07:46:35.614Z,18.47
2019-01-19T07:49:05.904Z,18.23
2019-01-19T07:51:36.132Z,18.37
2019-01-19T07:54:06.390Z,17.43
2019-01-19T07:56:36.604Z,18.30
2019-01-19T07:59:06.980Z,18.03
2019-01-19T08:01:37.196Z,18.57
2019-01-19T08:04:07.494Z,18.10
2019-01-19T08:06:37.693Z,17.47
2019-01-19T08:09:08.848Z,17.57
2019-01-19T08:11:39.086Z,17.23
2019-01-19T08:14:09.333Z,18.07
2019-01-19T08:16:39.559Z,17.20
2019-01-19T08:19:09.810Z,17.37
2019-01-19T08:21:40.054Z,15.87
2019-01-19T08:24:10.276Z,17.03
2019-01-19T08:26:40.526Z,15.47
2019-01-19T08:29:10.799Z,16.27
2019-01-19T08:31:41.389Z,15.67
2019-01-19T08:34:11.862Z,15.57
2019-01-19T08:36:42.110Z,15.07
2019-01-19T08:39:12.336Z,15.33
2019-01-19T08:41:42.632Z,14.37
2019-01-19T08:44:12.878Z,14.63
2019-01-19T08:46:43.178Z,14.43
2019-01-19T08:49:13.474Z,13.27
2019-01-19T08:51:44.866Z,14.10
2019-01-19T08:54:15.212Z,14.23
2019-01-19T08:56:45.508Z,12.77
2019-01-19T08:59:15.809Z,12.77
2019-01-19T09:01:46.215Z,12.70
2019-01-19T09:04:16.568Z,12.70
2019-01-19T09:06:46.908Z,11.53
2019-01-19T09:09:17.343Z,11.57
2019-01-19T09:11:50.827Z,11.30
2019-01-19T09:14:21.117Z,11.07
2019-01-19T09:16:51.510Z,10.77
2019-01-19T09:19:23.023Z,10.70
2019-01-19T09:21:53.253Z,10.33
2019-01-19T09:24:26.406Z,10.60
2019-01-19T09:26:56.721Z,11.37
2019-01-19T09:29:29.504Z,11.33
2019-01-19T09:32:00.201Z,11.00
2019-01-19T09:34:30.501Z,10.93
2019-01-19T09:37:00.903Z,11.77
2019-01-19T09:39:31.211Z,10.47
2019-01-19T09:42:01.468Z,11.83
2019-01-19T09:44:31.758Z,10.90
2019-01-19T09:47:02.094Z,10.97
2019-01-19T09:49:32.365Z,10.77
2019-01-19T09:52:02.637Z,10.20
2019-01-19T09:54:32.887Z,10.67
2019-01-19T09:57:03.257Z,11.07
2019-01-19T09:59:33.598Z,10.03
2019-01-19T10:02:03.858Z,11.07
2019-01-19T10:04:34.110Z,9.43
2019-01-19T10:07:04.467Z,10.27
2019-01-19T10:09:37.198Z,10.40
2019-01-19T10:12:07.467Z,11.63
2019-01-19T10:14:39.597Z,16.67
2019-01-19T10:17:10.060Z,12.03
2019-01-19T10:19:40.351Z,9.37
2019-01-19T10:22:10.698Z,10.03
2019-01-19T10:24:40.942Z,9.20
2019-01-19T10:27:11.227Z,10.40
2019-01-19T10:29:41.746Z,10.07
2019-01-19T10:32:12.119Z,10.47
2019-01-19T10:34:42.383Z,10.50
2019-01-19T10:37:12.666Z,9.80
2019-01-19T10:39:42.914Z,10.07
2019-01-19T10:42:13.206Z,9.80
2019-01-19T10:44:43.472Z,11.53
2019-01-19T10:47:19.462Z,10.37
2019-01-19T10:49:50.003Z,9.17
2019-01-19T10:52:20.539Z,9.50
2019-01-19T10:54:50.981Z,10.20
2019-01-19T10:57:21.702Z,9.23
2019-01-19T10:59:51.997Z,8.93
2019-01-19T11:02:23.544Z,8.60
2019-01-19T11:04:54.404Z,7.33
2019-01-19T11:07:24.912Z,9.67
2019-01-19T11:09:58.562Z,8.43
2019-01-19T11:12:30.729Z,8.33
2019-01-19T11:15:00.979Z,8.77
2019-01-19T11:17:31.283Z,7.83
2019-01-19T11:20:01.555Z,13.67
2019-01-19T11:22:31.964Z,11.43
2019-01-19T11:25:02.248Z,7.80
2019-01-19T11:27:32.859Z,7.20
2019-01-19T11:30:03.723Z,7.90
2019-01-19T11:32:35.324Z,6.83
2019-01-19T11:35:05.830Z,7.43
2019-01-19T11:37:36.593Z,7.50
2019-01-19T11:40:10.509Z,6.30
2019-01-19T11:42:40.983Z,7.23
2019-01-19T11:45:14.446Z,9.23
2019-01-19T11:47:44.804Z,8.13
2019-01-19T11:50:15.269Z,6.30
2019-01-19T11:52:45.634Z,5.63
2019-01-19T11:55:20.248Z,6.13
2019-01-19T11:57:53.150Z,5.97
2019-01-19T12:00:25.487Z,6.03
2019-01-19T12:02:56.030Z,9.07
2019-01-19T12:05:26.327Z,6.57
2019-01-19T12:07:56.549Z,6.07
2019-01-19T12:10:28.545Z,6.00
2019-01-19T12:12:59.991Z,6.00
2019-01-19T12:15:30.278Z,6.00
2019-01-19T12:18:00.605Z,6.27
2019-01-19T12:20:42.002Z,6.50
2019-01-19T12:23:13.571Z,6.67
2019-01-19T12:25:43.834Z,8.33
2019-01-19T12:28:18.096Z,6.47
2019-01-19T12:30:48.334Z,8.20
2019-01-19T12:33:18.605Z,6.07
2019-01-19T12:35:48.870Z,8.73
2019-01-19T12:38:19.187Z,8.53
2019-01-19T12:40:49.666Z,6.27
2019-01-19T12:43:21.997Z,5.90
2019-01-19T12:46:11.849Z,5.57
2019-01-19T12:48:43.094Z,5.40
2019-01-19T12:51:14.262Z,4.87
2019-01-19T12:53:44.595Z,5.67
2019-01-19T12:56:14.929Z,5.57
2019-01-19T12:58:45.190Z,5.87
2019-01-19T13:01:15.555Z,5.23
2019-01-19T13:03:45.893Z,5.27
2019-01-19T13:07:00.311Z,6.70
2019-01-19T13:09:33.796Z,5.03
2019-01-19T13:12:13.548Z,4.97
2019-01-19T13:14:58.213Z,4.63
2019-01-19T13:18:06.823Z,5.50
2019-01-19T13:21:30.154Z,6.90
2019-01-19T13:24:31.142Z,4.57
2019-01-19T13:27:36.352Z,6.80
2019-01-19T13:30:36.289Z,6.70
2019-01-19T13:33:38.890Z,13.77
2019-01-19T13:37:04.494Z,5.63
2019-01-19T13:40:38.099Z,4.77
2019-01-19T13:43:49.492Z,5.03
2019-01-19T13:46:59.310Z,5.33
2019-01-19T13:50:28.529Z,5.00
2019-01-19T13:53:38.635Z,4.93
2019-01-19T13:56:56.127Z,4.33
2019-01-19T14:00:19.606Z,4.93
2019-01-19T14:03:25.523Z,3.80
2019-01-19T14:06:22.741Z,4.60
2019-01-19T14:09:30.748Z,4.10
2019-01-19T14:12:35.265Z,4.13
2019-01-19T14:15:48.696Z,4.10
2019-01-19T14:19:01.488Z,4.00
2019-01-19T14:22:12.744Z,3.90
2019-01-19T14:25:17.321Z,3.97
2019-01-19T14:28:36.658Z,3.87
2019-01-19T14:32:05.968Z,3.67
2019-01-19T14:34:57.727Z,4.03
2019-01-19T14:38:19.010Z,4.73
2019-01-19T14:41:12.350Z,4.07
2019-01-19T14:44:14.565Z,3.83
2019-01-19T14:47:19.335Z,3.73
2019-01-19T14:50:31.980Z,3.80
2019-01-19T14:53:29.880Z,4.17
2019-01-19T14:56:50.911Z,3.70
2019-01-19T14:59:49.411Z,3.73
2019-01-19T15:02:55.055Z,4.00
2019-01-19T15:05:48.047Z,4.07
2019-01-19T15:08:42.389Z,3.97
2019-01-19T15:12:03.409Z,3.77
2019-01-19T15:15:04.828Z,4.10
2019-01-19T15:17:46.977Z,3.70
2019-01-19T15:20:33.339Z,3.73
2019-01-19T15:23:37.762Z,5.50
2019-01-19T15:26:55.319Z,5.60
2019-01-19T15:30:01.963Z,6.03
2019-01-19T15:33:06.277Z,8.17
2019-01-19T15:36:13.773Z,6.50
2019-01-19T15:39:15.066Z,7.53
2019-01-19T15:42:22.935Z,5.10
2019-01-19T15:45:32.849Z,5.20
2019-01-19T15:49:00.067Z,5.00
2019-01-19T15:52:20.372Z,5.73
2019-01-19T15:55:02.025Z,4.60
2019-01-19T15:58:32.273Z,5.37
2019-01-19T16:01:36.819Z,4.90
2019-01-19T16:05:08.610Z,4.97
2019-01-19T16:08:32.139Z,4.77
2019-01-19T16:11:27.951Z,4.27
2019-01-19T16:14:23.822Z,5.30
2019-01-19T16:17:39.348Z,6.17
2019-01-19T16:20:55.284Z,6.27
2019-01-19T16:24:01.352Z,6.40
2019-01-19T16:27:16.311Z,5.23
2019-01-19T16:30:36.799Z,4.60
2019-01-19T16:34:01.075Z,4.23
2019-01-19T16:36:49.692Z,4.57
2019-01-19T16:40:22.232Z,4.70
2019-01-19T16:43:25.374Z,4.33
2019-01-19T16:46:33.214Z,4.03
2019-01-19T16:49:56.346Z,5.57
2019-01-19T16:53:00.081Z,5.67
2019-01-19T16:56:12.341Z,4.97
2019-01-19T16:59:38.886Z,5.00
2019-01-19T17:02:44.656Z,5.53
2019-01-19T17:06:01.203Z,5.60
2019-01-19T17:09:15.716Z,4.90
2019-01-19T17:12:11.778Z,5.30
2019-01-19T17:15:17.243Z,6.23
2019-01-19T17:18:23.143Z,5.73
2019-01-19T17:21:40.612Z,5.93
2019-01-19T17:25:10.068Z,6.27
2019-01-19T17:28:15.425Z,6.10
2019-01-19T17:31:25.415Z,5.70
2019-01-19T17:34:25.667Z,5.87
2019-01-19T17:37:13.816Z,7.22
2019-01-19T17:40:29.571Z,6.63
2019-01-19T17:43:44.260Z,6.63
2019-01-19T17:47:11.251Z,6.67
2019-01-19T17:50:47.098Z,6.70
2019-01-19T17:53:50.039Z,6.57
2019-01-19T17:56:39.194Z,6.63
2019-01-19T18:00:02.460Z,6.17
2019-01-19T18:03:07.564Z,6.47
2019-01-19T18:06:09.322Z,6.20
2019-01-19T18:09:47.409Z,7.33
2019-01-19T18:12:45.680Z,6.97
2019-01-19T18:16:00.824Z,5.57
2019-01-19T18:19:08.282Z,5.30
2019-01-19T18:22:10.559Z,5.13
2019-01-19T18:25:13.649Z,5.30
2019-01-19T18:27:51.663Z,5.37
2019-01-19T18:31:12.436Z,4.77
2019-01-19T18:34:08.559Z,4.83
2019-01-19T18:37:13.939Z,5.23
2019-01-19T18:40:07.217Z,4.93
2019-01-19T18:43:12.327Z,4.80
2019-01-19T18:46:12.283Z,5.23
2019-01-19T18:49:23.641Z,4.93
2019-01-19T18:52:28.454Z,5.20
2019-01-19T18:55:52.636Z,5.77
2019-01-19T18:58:40.437Z,5.10
2019-01-19T19:01:40.439Z,5.50
2019-01-19T19:04:46.640Z,4.60
2019-01-19T19:08:13.301Z,5.60
2019-01-19T19:11:00.050Z,5.60
2019-01-19T19:14:08.527Z,5.33
2019-01-19T19:17:13.344Z,6.07
2019-01-19T19:20:08.699Z,6.60
2019-01-19T19:23:13.526Z,7.37
2019-01-19T19:26:08.880Z,6.93
2019-01-19T19:29:08.312Z,7.57
2019-01-19T19:31:58.331Z,7.30
2019-01-19T19:34:52.240Z,7.87
2019-01-19T19:37:56.614Z,7.90
2019-01-19T19:41:00.647Z,7.10
2019-01-19T19:44:17.356Z,7.30
2019-01-19T19:46:57.828Z,6.67
2019-01-19T19:49:35.949Z,6.63
2019-01-19T19:52:07.277Z,7.57
2019-01-19T19:54:37.557Z,7.47
2019-01-19T19:57:07.901Z,8.10
2019-01-19T19:59:38.259Z,8.23
2019-01-19T20:02:08.768Z,8.53
2019-01-19T20:04:39.141Z,9.77
2019-01-19T20:07:09.536Z,8.07
2019-01-19T20:09:39.931Z,8.23
2019-01-19T20:12:10.383Z,9.13
2019-01-19T20:14:40.819Z,8.17
2019-01-19T20:17:11.116Z,8.20
2019-01-19T20:19:41.443Z,8.67
2019-01-19T20:22:13.448Z,9.43
2019-01-19T20:24:43.851Z,9.03
2019-01-19T20:27:14.195Z,9.33
2019-01-19T20:29:44.633Z,8.47
2019-01-19T20:32:15.053Z,8.57
2019-01-19T20:34:45.370Z,9.03
2019-01-19T20:37:15.821Z,8.73
2019-01-19T20:39:46.221Z,7.63
2019-01-19T20:42:16.616Z,7.93
2019-01-19T20:44:47.060Z,7.03
2019-01-19T20:47:17.573Z,7.27
2019-01-19T20:49:48.067Z,6.90
2019-01-19T20:52:19.575Z,8.90
2019-01-19T20:54:50.059Z,7.90
2019-01-19T20:57:20.457Z,7.60
2019-01-19T20:59:53.854Z,7.80
2019-01-19T21:02:24.206Z,7.40
2019-01-19T21:04:56.588Z,6.77
2019-01-19T21:07:26.896Z,6.87
2019-01-19T21:09:57.218Z,6.40
2019-01-19T21:12:27.520Z,7.37
2019-01-19T21:14:57.886Z,7.40
2019-01-19T21:17:29.088Z,7.23
2019-01-19T21:19:59.623Z,7.57
2019-01-19T21:22:30.028Z,6.83
2019-01-19T21:25:00.751Z,7.53
2019-01-19T21:27:50.370Z,7.17
2019-01-19T21:30:20.723Z,7.73
2019-01-19T21:32:52.870Z,7.43
2019-01-19T21:35:23.244Z,8.07
2019-01-19T21:37:53.747Z,8.40
2019-01-19T21:40:24.082Z,8.63
2019-01-19T21:42:54.744Z,8.87
2019-01-19T21:45:25.095Z,8.20
2019-01-19T21:47:55.590Z,7.60
2019-01-19T21:50:25.954Z,8.53
2019-01-19T21:53:00.293Z,7.90
2019-01-19T21:55:30.785Z,8.20
2019-01-19T21:58:01.160Z,8.30
2019-01-19T22:00:31.628Z,7.83
2019-01-19T22:03:02.057Z,8.23
2019-01-19T22:05:34.037Z,7.13
2019-01-19T22:08:04.535Z,7.97
2019-01-19T22:10:35.109Z,8.40
2019-01-19T22:13:05.713Z,8.37
2019-01-19T22:15:36.066Z,8.97
2019-01-19T22:18:09.659Z,8.83
2019-01-19T22:20:40.639Z,8.67
2019-01-19T22:23:11.244Z,8.83
2019-01-19T22:25:41.523Z,9.43
2019-01-19T22:28:11.919Z,8.57
2019-01-19T22:30:43.248Z,9.00
2019-01-19T22:33:14.338Z,8.23
2019-01-19T22:35:45.530Z,8.27
2019-01-19T22:38:15.833Z,8.17
2019-01-19T22:40:53.557Z,8.73
2019-01-19T22:43:25.557Z,8.33
2019-01-19T22:45:56.078Z,8.43
2019-01-19T22:48:26.642Z,9.13
2019-01-19T22:50:57.036Z,8.87
2019-01-19T22:53:27.573Z,8.70
2019-01-19T22:55:58.214Z,8.80
2019-01-19T22:58:28.797Z,8.67
2019-01-19T23:01:34.989Z,8.57
2019-01-19T23:04:05.757Z,8.20
2019-01-19T23:06:39.255Z,8.27
2019-01-19T23:09:13.640Z,8.53
2019-01-19T23:11:43.941Z,8.90
2019-01-19T23:14:15.952Z,9.43
2019-01-19T23:16:49.004Z,9.33
2019-01-19T23:19:19.398Z,8.77
2019-01-19T23:21:49.704Z,9.60
2019-01-19T23:24:21.714Z,8.47
2019-01-19T23:26:52.832Z,9.30
2019-01-19T23:29:23.186Z,9.10
2019-01-19T23:31:53.511Z,9.00
2019-01-19T23:34:23.818Z,10.00
2019-01-19T23:36:54.107Z,9.87
2019-01-19T23:39:24.418Z,9.63
2019-01-19T23:41:54.746Z,9.57
2019-01-19T23:44:25.130Z,9.80
2019-01-19T23:46:55.438Z,9.83
2019-01-19T23:49:25.731Z,9.37
2019-01-19T23:51:56.109Z,9.90
2019-01-19T23:54:26.432Z,10.10
2019-01-19T23:56:57.689Z,10.40
2019-01-19T23:59:28.070Z,10.40
